Time;durP1;ratioP1;P1;durP2;ratioP2;P2;SDS_P1;SDS_P2;PMS_P1;PMS_P2;Temp;Humidity;BMP_temperature;BMP_pressure;BME280_temperature;BME280_humidity;BME280_pressure;Samples;Min_cycle;Max_cycle;Signal;HPM_P1;HPM_P2
2023/06/30 00:01:28;;;;;;;5.60;3.03;;;;;;;18.80;65.16;101207.06;4974868;28;20512;-87
2023/06/30 00:03:53;;;;;;;3.90;3.05;;;;;;;18.77;65.30;101204.66;4959264;28;20433;-87
2023/06/30 00:06:19;;;;;;;4.15;3.13;;;;;;;18.80;65.59;101217.56;4974942;28;20034;-87
2023/06/30 00:08:45;;;;;;;5.97;3.33;;;;;;;18.76;66.04;101209.06;4958822;28;20061;-88
2023/06/30 00:11:10;;;;;;;3.80;2.95;;;;;;;18.74;65.83;101203.09;4975293;28;20038;-87
2023/06/30 00:13:36;;;;;;;4.85;2.75;;;;;;;18.78;66.01;101209.81;4975155;28;20034;-87
2023/06/30 00:16:01;;;;;;;5.40;3.20;;;;;;;18.65;66.52;101218.69;4991003;28;20121;-87
2023/06/30 00:18:28;;;;;;;3.88;2.88;;;;;;;18.56;67.08;101222.78;4958944;28;20488;-86
2023/06/30 00:20:54;;;;;;;4.15;3.17;;;;;;;18.42;67.22;101208.06;4975529;28;20045;-87
2023/06/30 00:23:20;;;;;;;6.50;3.30;;;;;;;18.52;66.77;101205.63;4992349;28;20034;-87
2023/06/30 00:25:46;;;;;;;4.00;2.97;;;;;;;18.45;66.23;101202.59;4974644;28;20033;-86
2023/06/30 00:28:11;;;;;;;4.25;2.97;;;;;;;18.39;67.12;101207.47;4991101;28;20034;-87
2023/06/30 00:30:37;;;;;;;5.47;3.33;;;;;;;18.29;66.94;101183.72;4958349;28;20097;-87
2023/06/30 00:33:03;;;;;;;5.03;2.97;;;;;;;18.34;66.80;101197.31;4990969;28;20026;-86
2023/06/30 00:35:28;;;;;;;5.43;3.45;;;;;;;18.24;67.26;101206.75;4990661;28;20531;-86
2023/06/30 00:37:54;;;;;;;5.25;3.10;;;;;;;18.18;67.33;101204.56;4990585;28;20034;-87
2023/06/30 00:40:19;;;;;;;5.13;3.60;;;;;;;17.94;67.81;101181.81;4974756;28;20538;-87
2023/06/30 00:42:45;;;;;;;4.13;3.40;;;;;;;18.10;67.87;101206.94;4992000;28;20038;-87
2023/06/30 00:45:10;;;;;;;4.78;3.60;;;;;;;18.09;68.12;101198.22;4958102;28;20037;-87
2023/06/30 00:47:36;;;;;;;4.80;3.35;;;;;;;18.17;67.82;101201.13;4974361;28;20077;-87
2023/06/30 00:50:02;;;;;;;5.88;3.40;;;;;;;18.19;67.87;101195.78;4958299;28;20093;-86
2023/06/30 00:52:27;;;;;;;4.65;3.50;;;;;;;18.14;68.15;101187.44;4974772;28;20037;-86
2023/06/30 00:54:53;;;;;;;4.13;3.10;;;;;;;18.15;68.10;101199.56;4990958;28;20400;-87
2023/06/30 00:57:18;;;;;;;4.03;3.03;;;;;;;18.10;67.90;101196.47;4974676;28;20034;-87
2023/06/30 00:59:44;;;;;;;5.40;3.50;;;;;;;18.01;68.03;101175.22;4957991;28;20100;-87
2023/06/30 01:02:41;;;;;;;3.95;2.97;;;;;;;18.14;67.94;101190.03;4990545;28;20027;-87
2023/06/30 01:05:09;;;;;;;3.88;3.20;;;;;;;18.15;67.89;101183.84;4982284;28;20046;-86
2023/06/30 01:07:46;;;;;;;4.20;3.25;;;;;;;18.17;67.88;101179.34;4958123;28;20060;-86
2023/06/30 01:10:16;;;;;;;5.05;3.22;;;;;;;18.23;67.72;101186.75;4973861;28;20488;-87
2023/06/30 01:12:42;;;;;;;6.30;3.55;;;;;;;18.19;67.48;101180.94;4974003;28;20030;-86
2023/06/30 01:15:08;;;;;;;4.43;3.10;;;;;;;18.14;67.58;101182.19;4990030;28;20046;-87
2023/06/30 01:17:34;;;;;;;4.28;3.35;;;;;;;18.19;67.43;101195.78;4974039;28;20033;-87
2023/06/30 01:19:59;;;;;;;5.47;3.78;;;;;;;18.14;68.04;101187.44;4990320;28;20924;-87
2023/06/30 01:22:41;;;;;;;4.32;3.50;;;;;;;18.26;67.54;101187.38;4973840;28;20053;-87
2023/06/30 01:25:12;;;;;;;4.72;3.60;;;;;;;18.17;66.84;101187.19;4975523;28;20061;-86
2023/06/30 01:27:40;;;;;;;7.07;3.60;;;;;;;18.26;66.84;101186.53;4958501;28;20054;-87
2023/06/30 01:30:06;;;;;;;4.78;3.40;;;;;;;18.24;66.37;101189.28;4973732;28;20026;-87
2023/06/30 01:32:32;;;;;;;4.85;3.20;;;;;;;18.31;66.03;101193.13;4957898;28;20037;-86
2023/06/30 01:34:57;;;;;;;4.80;3.38;;;;;;;18.34;65.81;101178.97;4973770;28;20026;-87
2023/06/30 01:37:23;;;;;;;3.85;3.35;;;;;;;18.24;65.69;101165.69;4973691;28;20440;-86
2023/06/30 01:39:48;;;;;;;5.00;3.40;;;;;;;18.29;65.97;101183.72;4990169;28;20026;-87
2023/06/30 01:42:14;;;;;;;5.45;3.20;;;;;;;18.28;65.80;101171.53;4974253;28;20041;-87
2023/06/30 01:44:39;;;;;;;4.63;3.80;;;;;;;18.20;65.99;101166.03;4973578;28;20065;-86
2023/06/30 01:47:05;;;;;;;4.85;3.05;;;;;;;18.29;65.82;101178.47;4973821;28;20504;-86
2023/06/30 01:49:31;;;;;;;4.03;3.30;;;;;;;18.32;65.93;101179.09;4973719;28;20030;-87
2023/06/30 01:51:56;;;;;;;4.10;3.33;;;;;;;18.37;65.53;101183.13;4974081;28;20042;-87
2023/06/30 01:54:22;;;;;;;4.22;3.25;;;;;;;18.32;65.91;101175.63;4957607;28;20480;-87
2023/06/30 01:56:48;;;;;;;4.65;3.50;;;;;;;18.38;65.52;101175.16;4990025;28;20472;-86
2023/06/30 01:59:14;;;;;;;6.03;3.30;;;;;;;18.31;65.56;101181.81;4973390;28;20035;-87
2023/06/30 02:01:39;;;;;;;4.43;3.35;;;;;;;18.09;65.58;101131.91;4973659;28;20042;-87
2023/06/30 02:04:05;;;;;;;4.78;3.17;;;;;;;18.36;65.43;101171.81;4990164;28;20053;-87
2023/06/30 02:06:30;;;;;;;8.00;3.42;;;;;;;18.27;65.26;101168.09;4973524;28;20034;-88
2023/06/30 02:08:56;;;;;;;3.72;3.17;;;;;;;18.32;65.28;101170.38;4973514;28;20055;-88
2023/06/30 02:11:21;;;;;;;4.30;3.30;;;;;;;18.29;65.28;101165.38;4973597;28;20030;-87
2023/06/30 02:13:47;;;;;;;4.30;3.40;;;;;;;18.22;65.25;101148.44;4957135;28;20041;-88
2023/06/30 02:16:12;;;;;;;5.28;3.30;;;;;;;18.31;65.27;101169.56;4989629;28;20042;-87
2023/06/30 02:18:39;;;;;;;5.57;3.70;;;;;;;18.36;65.62;101177.06;4973622;28;20046;-86
2023/06/30 02:21:05;;;;;;;4.20;3.10;;;;;;;18.30;65.60;101172.28;4992323;28;20027;-86
2023/06/30 02:23:31;;;;;;;5.25;3.75;;;;;;;18.36;65.83;101179.69;4993312;28;20030;-87
2023/06/30 02:25:56;;;;;;;3.65;3.03;;;;;;;18.22;66.01;101177.25;4992622;28;20076;-87
2023/06/30 02:28:22;;;;;;;6.75;3.53;;;;;;;18.20;65.91;101160.81;4993274;28;20018;-87
2023/06/30 02:30:47;;;;;;;4.35;3.47;;;;;;;18.29;65.82;101170.63;4960863;28;20507;-87
2023/06/30 02:33:13;;;;;;;4.32;3.38;;;;;;;18.29;65.62;101175.84;4977097;28;20084;-86
2023/06/30 02:35:38;;;;;;;4.45;3.50;;;;;;;18.02;65.84;101152.50;4977283;28;20389;-86
2023/06/30 02:38:05;;;;;;;5.28;3.72;;;;;;;18.04;66.07;101155.81;4976668;28;20080;-87
2023/06/30 02:40:31;;;;;;;5.25;3.95;;;;;;;18.08;66.49;101170.34;4992511;28;20455;-87
2023/06/30 02:42:56;;;;;;;5.97;3.65;;;;;;;18.06;66.30;101175.72;4977189;28;20044;-87
2023/06/30 02:45:22;;;;;;;4.28;3.40;;;;;;;18.12;66.30;101178.84;4993209;28;20053;-87
2023/06/30 02:47:47;;;;;;;4.85;3.78;;;;;;;17.97;66.33;101171.13;4976725;28;20088;-87
2023/06/30 02:50:13;;;;;;;4.55;3.38;;;;;;;17.85;66.52;101166.78;4960586;28;20085;-87
2023/06/30 02:52:38;;;;;;;5.05;3.42;;;;;;;17.80;66.97;101166.28;4993026;28;20407;-86
2023/06/30 02:55:04;;;;;;;5.97;3.40;;;;;;;17.83;67.12;101173.06;4992619;28;20026;-86
2023/06/30 02:57:29;;;;;;;4.60;3.58;;;;;;;17.93;67.36;101171.47;4960448;28;20042;-86
2023/06/30 02:59:55;;;;;;;6.70;3.60;;;;;;;17.84;66.84;101170.34;4992956;28;20444;-86
2023/06/30 03:02:20;;;;;;;4.95;4.00;;;;;;;17.97;66.74;101167.69;4992719;28;20085;-86
2023/06/30 03:04:46;;;;;;;6.18;4.35;;;;;;;18.05;67.25;101171.41;4992339;28;20031;-86
2023/06/30 03:07:11;;;;;;;5.35;3.58;;;;;;;18.09;66.57;101169.41;4992297;28;20484;-86
2023/06/30 03:09:37;;;;;;;13.60;4.20;;;;;;;18.02;66.76;101174.28;4992520;28;20130;-86
2023/06/30 03:12:03;;;;;;;6.60;4.45;;;;;;;18.04;66.42;101161.91;4992781;28;20037;-86
2023/06/30 03:14:28;;;;;;;4.13;3.60;;;;;;;18.00;66.75;101170.94;4992394;28;20555;-86
2023/06/30 03:16:54;;;;;;;5.00;3.90;;;;;;;17.98;67.24;101170.19;4976506;28;20030;-86
2023/06/30 03:19:19;;;;;;;7.07;3.80;;;;;;;17.93;67.53;101169.69;4992383;28;20030;-86
2023/06/30 03:21:45;;;;;;;4.82;3.75;;;;;;;17.86;67.24;101155.34;4976110;28;20031;-87
2023/06/30 03:24:10;;;;;;;4.90;3.67;;;;;;;17.92;67.16;101165.41;4959636;28;20038;-86
2023/06/30 03:26:35;;;;;;;4.63;3.90;;;;;;;17.95;67.37;101153.88;4959807;28;20034;-86
2023/06/30 03:29:01;;;;;;;5.15;4.07;;;;;;;17.98;67.40;101162.31;4959610;28;20065;-87
2023/06/30 03:31:27;;;;;;;5.50;3.90;;;;;;;17.91;67.10;101161.13;4975455;28;20054;-87
2023/06/30 03:33:52;;;;;;;13.38;4.30;;;;;;;17.83;67.47;101163.44;4988829;28;20042;-88
2023/06/30 03:36:18;;;;;;;6.13;4.10;;;;;;;17.91;67.67;101168.13;4995028;28;20053;-87
2023/06/30 03:38:43;;;;;;;8.80;4.15;;;;;;;17.85;67.65;101166.78;4994809;28;20034;-87
2023/06/30 03:41:08;;;;;;;5.25;4.10;;;;;;;17.91;67.63;101176.81;4981108;28;20089;-87
2023/06/30 03:43:34;;;;;;;6.22;4.35;;;;;;;18.05;67.53;101170.59;4975610;28;20023;-90
2023/06/30 03:45:59;;;;;;;7.38;4.32;;;;;;;17.95;67.76;101173.03;4959577;28;20030;-84
2023/06/30 03:48:25;;;;;;;4.93;3.90;;;;;;;17.90;67.74;101153.38;4975270;28;20532;-85
2023/06/30 03:50:54;;;;;;;5.60;4.20;;;;;;;17.92;67.67;101162.78;4975542;28;20084;-81
2023/06/30 03:53:20;;;;;;;7.35;4.47;;;;;;;17.98;67.75;101162.31;4990958;28;20040;-81
2023/06/30 03:55:45;;;;;;;6.82;4.38;;;;;;;17.95;68.21;101162.56;4975214;28;20120;-82
2023/06/30 03:58:11;;;;;;;5.53;4.07;;;;;;;18.05;68.13;101173.22;4991509;28;20455;-82
2023/06/30 04:00:36;;;;;;;4.72;4.15;;;;;;;18.09;68.02;101179.88;4974972;28;20057;-81
2023/06/30 04:03:02;;;;;;;4.80;4.10;;;;;;;18.12;68.31;101168.38;4975152;28;20030;-82
2023/06/30 04:05:27;;;;;;;5.80;4.30;;;;;;;17.99;67.77;101157.94;4991266;28;20057;-81
2023/06/30 04:07:53;;;;;;;5.47;4.10;;;;;;;18.19;68.40;101169.59;4974119;28;20050;-82
2023/06/30 04:10:18;;;;;;;5.53;4.18;;;;;;;18.68;67.47;101171.28;4976995;28;20037;-83
2023/06/30 04:12:43;;;;;;;8.32;5.63;;;;;;;19.06;65.00;101161.38;4991250;28;20034;-81
2023/06/30 04:15:10;;;;;;;9.38;5.03;;;;;;;19.28;64.10;101154.50;4981648;28;20030;-82
2023/06/30 04:17:36;;;;;;;6.07;4.72;;;;;;;19.33;63.56;101178.56;4989913;28;20033;-82
2023/06/30 04:20:06;;;;;;;8.23;4.03;;;;;;;19.69;62.56;101164.44;4971578;28;20492;-86
2023/06/30 04:22:32;;;;;;;6.55;4.85;;;;;;;19.71;61.89;101167.75;4960529;28;20029;-90
2023/06/30 04:24:57;;;;;;;7.32;4.85;;;;;;;19.95;61.49;101154.47;4975192;28;20035;-85
2023/06/30 04:27:23;;;;;;;6.70;4.55;;;;;;;20.27;60.33;101155.34;4974858;28;20057;-86
2023/06/30 04:29:48;;;;;;;12.90;5.38;;;;;;;20.49;59.57;101172.03;4996003;28;20037;-85
2023/06/30 04:32:14;;;;;;;10.05;5.53;;;;;;;20.32;59.86;101173.34;4975352;28;20030;-90
2023/06/30 04:34:39;;;;;;;7.25;4.95;;;;;;;19.94;60.56;101171.19;4971118;28;20497;-87
2023/06/30 04:37:05;;;;;;;9.00;4.95;;;;;;;19.74;61.82;101181.47;4955491;28;20382;-90
2023/06/30 04:39:30;;;;;;;14.43;4.13;;;;;;;19.68;62.18;101189.00;4960835;28;20038;-90
2023/06/30 04:41:55;;;;;;;8.40;4.82;;;;;;;19.59;63.23;101163.47;4965770;28;20054;-88
2023/06/30 04:44:21;;;;;;;7.10;4.45;;;;;;;19.85;62.40;101166.66;4974531;28;20026;-87
2023/06/30 04:46:46;;;;;;;5.30;4.15;;;;;;;19.92;61.56;101155.56;4990807;28;20034;-87
2023/06/30 04:49:12;;;;;;;11.43;7.15;;;;;;;20.09;61.63;101190.97;5007939;28;20034;-88
2023/06/30 04:51:37;;;;;;;14.93;9.05;;;;;;;19.96;61.71;101188.50;4973355;28;20026;-86
2023/06/30 04:54:03;;;;;;;8.02;4.88;;;;;;;19.87;61.27;101180.53;4990187;28;20027;-87
2023/06/30 04:56:28;;;;;;;8.52;5.47;;;;;;;19.77;62.08;101197.00;4991402;28;20057;-87
2023/06/30 04:58:54;;;;;;;7.57;4.82;;;;;;;19.65;62.92;101182.19;4972856;28;20034;-86
2023/06/30 05:01:19;;;;;;;7.35;4.55;;;;;;;19.65;63.23;101190.06;4990952;28;20038;-89
2023/06/30 05:03:45;;;;;;;10.93;4.47;;;;;;;19.52;63.96;101176.19;5009473;28;20033;-91
2023/06/30 05:06:10;;;;;;;5.28;4.00;;;;;;;19.58;63.60;101188.88;4976459;28;20030;-88
2023/06/30 05:08:36;;;;;;;6.18;4.40;;;;;;;19.45;63.85;101177.63;4992229;28;20046;-89
2023/06/30 05:11:01;;;;;;;5.30;4.13;;;;;;;19.64;62.15;101188.41;4989922;28;20038;-90
2023/06/30 05:13:27;;;;;;;5.25;3.90;;;;;;;19.56;63.59;101168.94;4958003;28;20030;-87
2023/06/30 05:15:53;;;;;;;5.10;4.10;;;;;;;19.66;61.97;101186.47;5002929;28;20491;-88
2023/06/30 05:18:18;;;;;;;5.82;4.10;;;;;;;19.90;61.80;101188.16;4973946;28;20038;-88
2023/06/30 05:20:43;;;;;;;5.60;4.38;;;;;;;19.89;61.65;101186.47;4979807;28;20035;-88
2023/06/30 05:23:09;;;;;;;6.30;4.30;;;;;;;19.77;61.20;101168.13;4973873;28;20479;-87
2023/06/30 05:25:34;;;;;;;5.45;4.05;;;;;;;19.94;61.74;101182.50;4984342;28;20038;-86
2023/06/30 05:28:00;;;;;;;6.10;4.25;;;;;;;19.94;61.73;101179.06;5006359;28;20030;-87
2023/06/30 05:30:25;;;;;;;6.00;4.32;;;;;;;20.02;61.59;101171.41;4973646;28;20093;-89
2023/06/30 05:32:51;;;;;;;7.53;4.80;;;;;;;20.10;61.86;101179.50;4957732;28;20077;-94
2023/06/30 05:35:16;;;;;;;5.97;4.70;;;;;;;20.24;61.40;101191.53;4990117;28;20038;-87
2023/06/30 05:37:41;;;;;;;7.78;4.63;;;;;;;20.31;60.98;101188.28;4969142;28;20415;-89
2023/06/30 05:40:07;;;;;;;6.05;4.22;;;;;;;20.33;61.21;101183.75;4973219;28;20031;-88
2023/06/30 05:42:33;;;;;;;5.30;4.45;;;;;;;20.36;61.31;101177.41;4976024;28;20058;-91
2023/06/30 05:44:58;;;;;;;6.63;4.47;;;;;;;20.44;61.12;101176.81;4990247;28;20034;-89
2023/06/30 05:47:24;;;;;;;4.90;4.03;;;;;;;20.61;61.03;101186.78;4975104;28;20034;-93
2023/06/30 05:49:49;;;;;;;9.85;4.63;;;;;;;20.56;60.93;101173.19;4984078;28;20040;-89
2023/06/30 05:52:14;;;;;;;6.72;4.03;;;;;;;20.70;60.23;101183.41;4996444;28;20034;-92
2023/06/30 05:54:41;;;;;;;7.03;4.90;;;;;;;20.84;59.85;101188.38;4976904;28;20034;-93
2023/06/30 05:57:06;;;;;;;8.27;4.75;;;;;;;20.96;60.43;101183.88;5001408;28;20038;-87
2023/06/30 05:59:32;;;;;;;5.07;4.35;;;;;;;21.02;59.95;101170.19;4976170;28;20077;-85
2023/06/30 06:01:57;;;;;;;5.43;4.45;;;;;;;21.23;58.64;101191.22;4968728;28;20042;-90
2023/06/30 06:04:23;;;;;;;6.13;4.68;;;;;;;21.20;59.09;101170.44;4974178;28;20104;-88
2023/06/30 06:06:48;;;;;;;6.35;4.38;;;;;;;21.43;58.64;101185.13;4988795;28;20034;-93
2023/06/30 06:09:14;;;;;;;6.75;4.55;;;;;;;21.58;58.44;101180.34;4967206;28;20042;-93
2023/06/30 06:11:39;;;;;;;5.20;3.92;;;;;;;21.81;57.16;101180.13;4962259;28;20031;-91
2023/06/30 06:14:05;;;;;;;9.40;4.28;;;;;;;21.97;57.00;101176.03;4992499;28;20097;-88
2023/06/30 06:16:30;;;;;;;6.05;4.93;;;;;;;22.07;57.29;101176.06;4992687;28;20530;-87
2023/06/30 06:18:56;;;;;;;5.95;4.47;;;;;;;22.31;56.97;101183.59;4991777;28;20447;-92
2023/06/30 06:21:26;;;;;;;5.28;3.97;;;;;;;22.49;55.06;101187.22;4977781;28;20400;-93
2023/06/30 06:23:51;;;;;;;7.15;4.78;;;;;;;22.65;55.73;101185.84;4965562;28;20488;-88
2023/06/30 06:26:17;;;;;;;5.55;4.47;;;;;;;22.71;55.83;101177.34;4991288;28;20122;-88
2023/06/30 06:28:42;;;;;;;6.00;4.43;;;;;;;22.79;55.77;101167.75;4958655;28;20519;-88
2023/06/30 06:31:09;;;;;;;6.53;4.68;;;;;;;22.99;55.76;101175.66;4977273;28;20416;-93
2023/06/30 06:33:35;;;;;;;5.35;4.25;;;;;;;22.99;55.10;101183.59;4978338;28;20032;-90
2023/06/30 06:36:00;;;;;;;7.32;4.88;;;;;;;23.01;54.69;101177.22;4976003;28;20043;-88
2023/06/30 06:38:26;;;;;;;9.00;4.70;;;;;;;23.03;55.05;101175.25;4963890;28;20468;-89
2023/06/30 06:40:51;;;;;;;5.10;4.13;;;;;;;23.12;54.62;101174.41;4987448;28;20034;-91
2023/06/30 06:43:17;;;;;;;4.97;4.47;;;;;;;23.18;54.69;101168.53;4946751;28;20081;-87
2023/06/30 06:45:42;;;;;;;6.28;4.55;;;;;;;23.39;53.59;101170.13;4990212;28;20042;-95
2023/06/30 06:48:21;;;;;;;6.25;5.13;;;;;;;23.45;53.46;101166.94;4977313;28;20443;-91
2023/06/30 06:50:47;;;;;;;6.57;4.78;;;;;;;23.52;53.62;101168.00;5000532;28;20050;-88
2023/06/30 06:53:22;;;;;;;9.10;4.15;;;;;;;23.64;53.16;101164.22;4984460;28;20038;-94
2023/06/30 06:55:48;;;;;;;5.00;4.40;;;;;;;23.72;52.97;101169.63;4963249;28;20526;-90
2023/06/30 06:58:14;;;;;;;13.13;9.73;;;;;;;23.84;52.98;101169.41;4981420;28;20045;-91
2023/06/30 07:00:39;;;;;;;12.40;8.80;;;;;;;23.89;53.06;101165.38;4971367;28;20030;-89
2023/06/30 07:03:05;;;;;;;5.43;4.43;;;;;;;24.08;53.15;101171.47;4993366;28;20033;-93
2023/06/30 07:05:31;;;;;;;7.85;4.32;;;;;;;24.08;52.56;101161.72;4995130;28;20100;-92
2023/06/30 07:07:57;;;;;;;5.78;4.60;;;;;;;24.21;52.45;101153.47;4980397;28;20058;-91
2023/06/30 07:10:22;;;;;;;4.90;4.05;;;;;;;24.38;51.05;101157.09;4997689;28;20095;-87
2023/06/30 07:12:48;;;;;;;5.60;4.50;;;;;;;24.40;50.39;101149.88;5003995;28;20045;-90
2023/06/30 07:15:13;;;;;;;6.70;5.00;;;;;;;24.49;50.23;101133.09;4976374;28;20483;-91
2023/06/30 07:17:39;;;;;;;5.57;4.68;;;;;;;24.51;49.57;101126.66;4959801;28;20042;-91
2023/06/30 07:20:05;;;;;;;5.78;4.50;;;;;;;24.80;50.81;101147.53;4994328;28;20034;-93
2023/06/30 07:22:31;;;;;;;8.27;5.13;;;;;;;24.95;49.63;101149.59;4977708;28;20113;-88
2023/06/30 07:24:56;;;;;;;6.78;4.20;;;;;;;25.05;49.62;101150.34;4976799;28;20417;-88
2023/06/30 07:27:22;;;;;;;9.68;4.25;;;;;;;25.02;48.75;101126.84;4975590;28;20029;-87
2023/06/30 07:29:49;;;;;;;4.97;4.18;;;;;;;25.20;48.89;101143.50;4995140;28;20041;-92
2023/06/30 07:32:15;;;;;;;7.60;4.40;;;;;;;25.28;49.61;101119.72;4957000;28;20500;-92
2023/06/30 07:34:40;;;;;;;5.15;4.13;;;;;;;25.42;48.36;101140.31;4973495;28;20073;-89
2023/06/30 07:37:07;;;;;;;4.40;3.80;;;;;;;25.46;46.37;101141.63;4976385;28;20026;-89
2023/06/30 07:39:33;;;;;;;3.97;3.25;;;;;;;25.60;44.31;101149.97;4964520;28;20030;-86
2023/06/30 07:41:59;;;;;;;5.70;3.50;;;;;;;25.66;44.99;101138.72;4955963;28;20034;-91
2023/06/30 07:44:24;;;;;;;4.85;3.90;;;;;;;25.70;45.96;101135.63;4984747;28;20101;-90
2023/06/30 07:46:50;;;;;;;7.95;5.78;;;;;;;25.74;46.13;101138.78;5000526;28;20042;-90
2023/06/30 07:49:15;;;;;;;5.72;4.07;;;;;;;25.86;46.74;101129.56;4988109;28;20034;-93
2023/06/30 07:51:41;;;;;;;4.55;3.60;;;;;;;25.96;46.05;101127.59;4963353;28;20034;-90
2023/06/30 07:54:07;;;;;;;5.07;3.40;;;;;;;26.10;43.14;101138.53;4986505;28;20035;-93
2023/06/30 07:56:33;;;;;;;4.20;3.30;;;;;;;26.08;43.91;101129.94;4993156;28;20559;-91
2023/06/30 07:58:59;;;;;;;4.53;3.47;;;;;;;26.21;43.90;101135.56;4975737;28;20121;-88
2023/06/30 08:01:25;;;;;;;6.43;3.28;;;;;;;26.27;43.42;101119.00;4989451;28;20475;-91
2023/06/30 08:03:51;;;;;;;11.43;8.07;;;;;;;26.40;42.33;101124.66;4962466;28;20117;-92
2023/06/30 08:06:16;;;;;;;5.07;3.60;;;;;;;26.45;42.06;101127.66;4963905;28;20030;-89
2023/06/30 08:08:42;;;;;;;5.85;3.80;;;;;;;26.55;41.12;101130.97;4987623;28;20046;-91
2023/06/30 08:11:07;;;;;;;3.97;3.00;;;;;;;26.49;41.93;101109.56;4965375;28;20053;-89
2023/06/30 08:13:33;;;;;;;5.57;3.20;;;;;;;26.55;41.29;101114.22;4962674;28;20385;-91
2023/06/30 08:15:58;;;;;;;3.50;3.15;;;;;;;26.57;41.30;101107.75;4960581;28;20465;-87
2023/06/30 08:18:25;;;;;;;5.50;4.90;;;;;;;26.80;41.51;101118.50;4971412;28;20084;-88
2023/06/30 08:20:51;;;;;;;10.90;7.75;;;;;;;26.90;41.38;101113.00;4992536;28;20084;-90
2023/06/30 08:23:16;;;;;;;4.85;3.42;;;;;;;26.88;40.58;101113.16;4964092;28;20038;-92
2023/06/30 08:25:42;;;;;;;3.60;3.03;;;;;;;26.97;40.10;101110.50;4958801;28;20026;-91
2023/06/30 08:28:07;;;;;;;4.32;3.15;;;;;;;27.07;39.71;101113.81;4989806;28;20026;-93
2023/06/30 08:30:33;;;;;;;5.78;3.10;;;;;;;27.14;39.13;101110.31;4976184;28;20492;-87
2023/06/30 08:32:58;;;;;;;3.97;3.35;;;;;;;27.31;39.40;101105.75;4999421;28;20027;-89
2023/06/30 08:35:24;;;;;;;3.78;3.15;;;;;;;27.37;38.37;101107.72;4965977;28;20037;-90
2023/06/30 08:37:49;;;;;;;4.28;3.08;;;;;;;27.38;38.74;101106.72;4988787;28;20030;-91
2023/06/30 08:40:24;;;;;;;6.38;2.88;;;;;;;27.50;38.59;101109.00;4979464;28;20481;-88
2023/06/30 08:42:50;;;;;;;3.28;2.70;;;;;;;27.56;38.96;101097.69;4972416;28;20058;-89
2023/06/30 08:45:15;;;;;;;4.68;3.15;;;;;;;27.62;37.98;101112.91;4957882;28;20508;-90
2023/06/30 08:47:41;;;;;;;4.25;2.80;;;;;;;27.36;39.20;101082.16;4974076;28;20037;-87
2023/06/30 08:50:07;;;;;;;3.83;3.10;;;;;;;27.66;38.45;101109.78;4990170;28;20522;-87
2023/06/30 08:52:33;;;;;;;4.22;3.30;;;;;;;27.69;39.86;101092.63;4981656;28;20033;-93
2023/06/30 08:55:01;;;;;;;3.83;3.10;;;;;;;27.87;37.89;101095.03;4988860;28;20061;-87
2023/06/30 08:57:26;;;;;;;6.78;3.45;;;;;;;27.86;39.19;101098.69;4961863;28;20089;-89
2023/06/30 08:59:53;;;;;;;4.70;3.20;;;;;;;27.93;38.61;101094.34;4975589;28;20047;-93
2023/06/30 09:02:19;;;;;;;3.70;2.72;;;;;;;27.89;38.20;101079.72;4972718;28;20495;-89
2023/06/30 09:04:44;;;;;;;3.53;2.70;;;;;;;28.01;37.70;101091.59;4956682;28;20034;-87
2023/06/30 09:07:23;;;;;;;3.90;3.00;;;;;;;28.09;37.07;101093.38;5007750;23;20093;-87
2023/06/30 09:09:49;;;;;;;6.05;3.17;;;;;;;27.91;37.52;101086.50;4977089;28;20042;-91
2023/06/30 09:12:14;;;;;;;3.75;2.90;;;;;;;27.75;37.70;101091.13;4990696;28;20026;-91
2023/06/30 09:14:40;;;;;;;3.50;2.72;;;;;;;27.78;36.15;101086.28;4959588;28;20030;-91
2023/06/30 09:17:06;;;;;;;3.35;2.75;;;;;;;27.99;36.40;101090.94;4991426;28;20041;-87
2023/06/30 09:19:31;;;;;;;8.30;5.55;;;;;;;28.15;34.99;101076.72;4983977;28;20035;-86
2023/06/30 09:21:57;;;;;;;3.65;2.55;;;;;;;28.34;35.97;101088.72;4957426;28;20130;-91
2023/06/30 09:24:23;;;;;;;4.70;2.65;;;;;;;28.64;34.99;101087.75;4972467;28;20041;-94
2023/06/30 09:26:49;;;;;;;2.92;2.50;;;;;;;28.82;34.87;101072.25;4981327;28;20032;-90
2023/06/30 09:29:16;;;;;;;4.82;2.53;;;;;;;28.98;33.72;101079.25;5011971;28;20041;-93
2023/06/30 09:31:42;;;;;;;3.40;2.65;;;;;;;28.98;34.92;101083.75;4985625;28;20054;-92
2023/06/30 09:34:09;;;;;;;3.58;2.60;;;;;;;29.12;34.78;101083.75;4988691;28;20045;-92
2023/06/30 09:36:35;;;;;;;3.13;2.65;;;;;;;28.96;34.78;101069.81;4958801;28;20077;-88
2023/06/30 09:39:00;;;;;;;3.30;2.53;;;;;;;28.87;34.87;101047.72;4956347;28;20034;-87
2023/06/30 09:41:26;;;;;;;2.97;2.33;;;;;;;28.93;33.08;101070.19;4979764;28;20041;-87
2023/06/30 09:43:58;;;;;;;3.20;2.70;;;;;;;29.00;33.97;101071.06;4975849;28;20043;-89
2023/06/30 09:46:23;;;;;;;;;;;;;;;28.95;34.13;101065.50;5000791;28;20076;-89
2023/06/30 09:48:52;;;;;;;3.47;2.55;;;;;;;28.94;33.12;101066.50;4988400;28;20399;-85
2023/06/30 09:51:20;;;;;;;3.88;2.58;;;;;;;28.89;32.93;101048.41;4989974;28;20480;-89
2023/06/30 09:53:46;;;;;;;3.10;2.67;;;;;;;28.90;33.72;101065.22;4992268;28;20084;-87
2023/06/30 09:56:21;;;;;;;3.60;2.60;;;;;;;28.88;33.28;101065.38;4971921;28;20025;-89
2023/06/30 09:59:05;;;;;;;3.67;2.85;;;;;;;28.87;33.85;101055.72;4984662;28;20034;-85
2023/06/30 10:01:31;;;;;;;4.18;2.50;;;;;;;29.25;33.73;101063.63;4961315;28;20026;-89
2023/06/30 10:03:57;;;;;;;3.97;2.70;;;;;;;29.26;33.54;101055.44;4987432;28;20508;-92
2023/06/30 10:06:23;;;;;;;3.22;2.60;;;;;;;28.91;35.15;101048.22;4987997;28;20444;-87
2023/06/30 10:08:49;;;;;;;3.13;2.72;;;;;;;29.13;34.54;101052.63;4984930;28;20073;-92
2023/06/30 10:11:15;;;;;;;3.55;2.55;;;;;;;29.21;33.58;101035.72;4970135;28;20088;-90
2023/06/30 10:13:43;;;;;;;3.22;2.60;;;;;;;29.11;32.01;101041.34;4988163;28;20034;-90
2023/06/30 10:16:09;;;;;;;3.95;2.65;;;;;;;29.07;32.75;101045.38;4973275;28;20048;-90
2023/06/30 10:18:40;;;;;;;3.20;2.47;;;;;;;29.20;32.98;101040.19;4991450;28;20126;-93
2023/06/30 10:21:06;;;;;;;3.38;2.58;;;;;;;29.18;32.28;101034.22;4978532;28;20074;-92
2023/06/30 10:23:32;;;;;;;7.40;2.60;;;;;;;29.04;33.29;101011.13;4983701;28;20034;-88
2023/06/30 10:25:57;;;;;;;2.90;2.40;;;;;;;29.08;33.39;101015.03;4980891;28;20105;-89
2023/06/30 10:28:23;;;;;;;2.90;2.50;;;;;;;29.27;33.73;101024.28;4965344;28;20046;-82
2023/06/30 10:30:49;;;;;;;5.47;2.42;;;;;;;29.47;32.60;101008.50;4984466;28;20035;-84
2023/06/30 10:33:15;;;;;;;2.60;2.15;;;;;;;29.55;30.81;101008.44;4980029;28;20030;-84
2023/06/30 10:35:41;;;;;;;18.60;13.90;;;;;;;29.73;31.79;101014.16;4990023;28;20050;-89
2023/06/30 10:38:07;;;;;;;3.72;2.50;;;;;;;29.61;30.54;100989.84;4996750;28;20103;-90
2023/06/30 10:40:32;;;;;;;2.85;2.40;;;;;;;29.81;31.33;101006.03;4989237;28;20027;-90
2023/06/30 10:42:58;;;;;;;3.28;2.20;;;;;;;29.91;31.06;101008.38;4989459;28;20101;-87
2023/06/30 10:45:30;;;;;;;3.50;2.60;;;;;;;29.99;31.95;100995.72;4982025;28;20056;-86
2023/06/30 10:47:56;;;;;;;4.35;2.60;;;;;;;30.36;31.39;101003.59;4991654;28;20097;-90
2023/06/30 10:50:21;;;;;;;4.78;3.00;;;;;;;30.55;31.77;101002.88;4991307;28;20472;-89
2023/06/30 10:52:48;;;;;;;13.27;9.27;;;;;;;30.62;32.53;100990.41;5004340;28;20030;-90
2023/06/30 10:55:13;;;;;;;3.90;3.10;;;;;;;30.77;32.58;100982.28;4990734;28;20033;-85
2023/06/30 10:57:39;;;;;;;4.07;2.58;;;;;;;30.96;30.36;100988.72;5007306;28;20424;-86
2023/06/30 11:00:06;;;;;;;3.50;2.40;;;;;;;30.78;30.73;100955.41;4989765;28;20106;-86
2023/06/30 11:02:32;;;;;;;2.92;2.35;;;;;;;30.96;28.76;100986.88;4990154;28;20030;-86
2023/06/30 11:05:19;;;;;;;3.08;2.63;;;;;;;30.84;29.29;100985.81;4988785;28;20045;-87
2023/06/30 11:07:49;;;;;;;2.60;2.20;;;;;;;31.10;29.23;100969.88;4968224;28;20051;-94
2023/06/30 11:10:46;;;;;;;2.92;2.22;;;;;;;31.19;28.52;100975.03;4953566;28;20045;-85
2023/06/30 11:13:12;;;;;;;3.45;2.10;;;;;;;30.91;28.77;100967.16;4988501;28;20046;-89
2023/06/30 11:15:43;;;;;;;3.15;2.25;;;;;;;31.21;29.59;100973.03;4972884;28;20034;-87
2023/06/30 11:18:21;;;;;;;12.27;2.22;;;;;;;31.58;27.16;100967.13;4977803;28;20062;-85
2023/06/30 11:21:06;;;;;;;2.50;2.00;;;;;;;31.54;27.71;100957.84;4969648;28;20082;-92